sensor_id;sensor_type;location;lat;lon;timestamp;temperature;humidity
23116;DHT22;11727;52.134;5.052;2023-02-03T00:01:26;9.10;99.90
23116;DHT22;11727;52.134;5.052;2023-02-03T00:03:52;9.10;99.90
23116;DHT22;11727;52.134;5.052;2023-02-03T00:06:18;9.10;99.90
23116;DHT22;11727;52.134;5.052;2023-02-03T00:08:44;9.10;99.90
23116;DHT22;11727;52.134;5.052;2023-02-03T00:11:09;9.10;99.90
23116;DHT22;11727;52.134;5.052;2023-02-03T00:13:35;9.10;99.90
23116;DHT22;11727;52.134;5.052;2023-02-03T00:16:01;9.10;99.90
23116;DHT22;11727;52.134;5.052;2023-02-03T00:18:27;9.10;99.90
23116;DHT22;11727;52.134;5.052;2023-02-03T00:20:53;9.10;99.90
23116;DHT22;11727;52.134;5.052;2023-02-03T00:23:19;9.10;99.90
23116;DHT22;11727;52.134;5.052;2023-02-03T00:25:44;9.10;99.90
23116;DHT22;11727;52.134;5.052;2023-02-03T00:28:10;9.10;99.90
23116;DHT22;11727;52.134;5.052;2023-02-03T00:30:36;9.10;99.90
23116;DHT22;11727;52.134;5.052;2023-02-03T00:33:02;9.10;99.90
23116;DHT22;11727;52.134;5.052;2023-02-03T00:35:28;9.10;99.90
23116;DHT22;11727;52.134;5.052;2023-02-03T00:37:54;9.10;99.90
23116;DHT22;11727;52.134;5.052;2023-02-03T00:40:22;9.10;99.90
23116;DHT22;11727;52.134;5.052;2023-02-03T00:42:48;9.10;99.90
23116;DHT22;11727;52.134;5.052;2023-02-03T00:45:14;9.10;99.90
23116;DHT22;11727;52.134;5.052;2023-02-03T00:47:39;9.10;99.90
23116;DHT22;11727;52.134;5.052;2023-02-03T00:50:06;9.10;99.90
23116;DHT22;11727;52.134;5.052;2023-02-03T00:52:32;9.10;99.90
23116;DHT22;11727;52.134;5.052;2023-02-03T00:54:57;9.10;99.90
23116;DHT22;11727;52.134;5.052;2023-02-03T00:57:23;9.10;99.90
23116;DHT22;11727;52.134;5.052;2023-02-03T00:59:49;9.10;99.90
23116;DHT22;11727;52.134;5.052;2023-02-03T01:02:14;9.10;99.90
23116;DHT22;11727;52.134;5.052;2023-02-03T01:04:42;9.10;99.90
23116;DHT22;11727;52.134;5.052;2023-02-03T01:07:08;9.10;99.90
23116;DHT22;11727;52.134;5.052;2023-02-03T01:09:35;9.10;99.90
23116;DHT22;11727;52.134;5.052;2023-02-03T01:12:02;9.10;99.90
23116;DHT22;11727;52.134;5.052;2023-02-03T01:14:28;9.10;99.90
23116;DHT22;11727;52.134;5.052;2023-02-03T01:16:54;9.10;99.90
23116;DHT22;11727;52.134;5.052;2023-02-03T01:19:20;9.10;99.90
23116;DHT22;11727;52.134;5.052;2023-02-03T01:21:46;9.10;99.90
23116;DHT22;11727;52.134;5.052;2023-02-03T01:24:11;9.10;99.90
23116;DHT22;11727;52.134;5.052;2023-02-03T01:26:39;9.20;99.90
23116;DHT22;11727;52.134;5.052;2023-02-03T01:29:05;9.10;99.90
23116;DHT22;11727;52.134;5.052;2023-02-03T01:31:37;9.10;99.90
23116;DHT22;11727;52.134;5.052;2023-02-03T01:34:05;9.10;99.90
23116;DHT22;11727;52.134;5.052;2023-02-03T01:36:32;9.10;99.90
23116;DHT22;11727;52.134;5.052;2023-02-03T01:38:58;9.10;99.90
23116;DHT22;11727;52.134;5.052;2023-02-03T01:41:27;9.10;99.90
23116;DHT22;11727;52.134;5.052;2023-02-03T01:43:55;9.10;99.90
23116;DHT22;11727;52.134;5.052;2023-02-03T01:46:29;9.10;99.90
23116;DHT22;11727;52.134;5.052;2023-02-03T01:51:28;9.00;99.90
23116;DHT22;11727;52.134;5.052;2023-02-03T01:53:54;9.00;99.90
23116;DHT22;11727;52.134;5.052;2023-02-03T01:56:23;9.00;99.90
23116;DHT22;11727;52.134;5.052;2023-02-03T01:58:49;9.10;99.90
23116;DHT22;11727;52.134;5.052;2023-02-03T02:01:15;9.10;99.90
23116;DHT22;11727;52.134;5.052;2023-02-03T02:03:45;9.10;99.90
23116;DHT22;11727;52.134;5.052;2023-02-03T02:06:13;9.10;99.90
23116;DHT22;11727;52.134;5.052;2023-02-03T02:08:41;9.10;99.90
23116;DHT22;11727;52.134;5.052;2023-02-03T02:11:08;9.20;99.90
23116;DHT22;11727;52.134;5.052;2023-02-03T02:13:34;9.20;99.90
23116;DHT22;11727;52.134;5.052;2023-02-03T02:16:32;9.20;99.90
23116;DHT22;11727;52.134;5.052;2023-02-03T02:21:51;9.30;99.90
23116;DHT22;11727;52.134;5.052;2023-02-03T02:30:26;9.40;99.90
23116;DHT22;11727;52.134;5.052;2023-02-03T02:33:00;9.40;99.90
23116;DHT22;11727;52.134;5.052;2023-02-03T02:38:34;9.40;99.90
23116;DHT22;11727;52.134;5.052;2023-02-03T02:41:05;9.40;99.90
23116;DHT22;11727;52.134;5.052;2023-02-03T02:43:40;9.40;99.90
23116;DHT22;11727;52.134;5.052;2023-02-03T02:46:21;9.50;99.90
23116;DHT22;11727;52.134;5.052;2023-02-03T02:48:56;9.50;99.90
23116;DHT22;11727;52.134;5.052;2023-02-03T02:51:24;9.50;99.90
23116;DHT22;11727;52.134;5.052;2023-02-03T02:53:55;9.50;99.90
23116;DHT22;11727;52.134;5.052;2023-02-03T02:56:24;9.50;99.90
23116;DHT22;11727;52.134;5.052;2023-02-03T02:58:53;9.50;99.90
23116;DHT22;11727;52.134;5.052;2023-02-03T03:01:20;9.60;99.90
23116;DHT22;11727;52.134;5.052;2023-02-03T03:03:46;9.60;99.90
23116;DHT22;11727;52.134;5.052;2023-02-03T03:09:06;9.60;99.90
23116;DHT22;11727;52.134;5.052;2023-02-03T03:11:38;9.60;99.90
23116;DHT22;11727;52.134;5.052;2023-02-03T03:14:07;9.60;99.90
23116;DHT22;11727;52.134;5.052;2023-02-03T03:16:36;9.60;99.90
23116;DHT22;11727;52.134;5.052;2023-02-03T03:19:11;9.60;99.90
23116;DHT22;11727;52.134;5.052;2023-02-03T03:21:45;9.60;99.90
23116;DHT22;11727;52.134;5.052;2023-02-03T03:24:14;9.60;99.90
23116;DHT22;11727;52.134;5.052;2023-02-03T03:26:50;9.60;99.90
23116;DHT22;11727;52.134;5.052;2023-02-03T03:31:45;9.60;99.90
23116;DHT22;11727;52.134;5.052;2023-02-03T03:34:12;9.60;99.90
23116;DHT22;11727;52.134;5.052;2023-02-03T03:42:03;9.60;99.90
23116;DHT22;11727;52.134;5.052;2023-02-03T03:44:46;9.60;99.90
23116;DHT22;11727;52.134;5.052;2023-02-03T03:47:20;9.60;99.90
23116;DHT22;11727;52.134;5.052;2023-02-03T03:49:48;9.60;99.90
23116;DHT22;11727;52.134;5.052;2023-02-03T03:52:19;9.60;99.90
23116;DHT22;11727;52.134;5.052;2023-02-03T03:54:47;9.60;99.90
23116;DHT22;11727;52.134;5.052;2023-02-03T03:57:18;9.70;99.90
23116;DHT22;11727;52.134;5.052;2023-02-03T03:59:46;9.70;99.90
23116;DHT22;11727;52.134;5.052;2023-02-03T04:02:13;9.70;99.90
23116;DHT22;11727;52.134;5.052;2023-02-03T04:04:40;9.70;99.90
23116;DHT22;11727;52.134;5.052;2023-02-03T04:07:06;9.70;99.90
23116;DHT22;11727;52.134;5.052;2023-02-03T04:09:32;9.70;99.90
23116;DHT22;11727;52.134;5.052;2023-02-03T04:12:01;9.70;99.90
23116;DHT22;11727;52.134;5.052;2023-02-03T04:14:32;9.70;99.90
23116;DHT22;11727;52.134;5.052;2023-02-03T04:16:58;9.70;99.90
23116;DHT22;11727;52.134;5.052;2023-02-03T04:19:24;9.70;99.90
23116;DHT22;11727;52.134;5.052;2023-02-03T04:21:50;9.70;99.90
23116;DHT22;11727;52.134;5.052;2023-02-03T04:24:15;9.70;99.90
23116;DHT22;11727;52.134;5.052;2023-02-03T04:26:41;9.70;99.90
23116;DHT22;11727;52.134;5.052;2023-02-03T04:29:07;9.60;99.90
23116;DHT22;11727;52.134;5.052;2023-02-03T04:31:33;9.70;99.90
23116;DHT22;11727;52.134;5.052;2023-02-03T04:33:58;9.60;99.90
23116;DHT22;11727;52.134;5.052;2023-02-03T04:36:24;9.60;99.90
23116;DHT22;11727;52.134;5.052;2023-02-03T04:38:50;9.70;99.90
23116;DHT22;11727;52.134;5.052;2023-02-03T04:41:16;9.60;99.90
23116;DHT22;11727;52.134;5.052;2023-02-03T04:43:42;9.60;99.90
23116;DHT22;11727;52.134;5.052;2023-02-03T04:46:07;9.60;99.90
23116;DHT22;11727;52.134;5.052;2023-02-03T04:48:34;9.60;99.90
23116;DHT22;11727;52.134;5.052;2023-02-03T04:51:04;9.60;99.90
23116;DHT22;11727;52.134;5.052;2023-02-03T04:53:31;9.60;99.90
23116;DHT22;11727;52.134;5.052;2023-02-03T04:55:57;9.60;99.90
23116;DHT22;11727;52.134;5.052;2023-02-03T04:58:23;9.60;99.90
23116;DHT22;11727;52.134;5.052;2023-02-03T05:00:50;9.60;99.90
23116;DHT22;11727;52.134;5.052;2023-02-03T05:03:16;9.60;99.90
23116;DHT22;11727;52.134;5.052;2023-02-03T05:05:41;9.60;99.90
23116;DHT22;11727;52.134;5.052;2023-02-03T05:08:07;9.60;99.90
23116;DHT22;11727;52.134;5.052;2023-02-03T05:10:32;9.60;99.90
23116;DHT22;11727;52.134;5.052;2023-02-03T05:12:58;9.60;99.90
23116;DHT22;11727;52.134;5.052;2023-02-03T05:15:24;9.60;99.90
23116;DHT22;11727;52.134;5.052;2023-02-03T05:17:53;9.60;99.90
23116;DHT22;11727;52.134;5.052;2023-02-03T05:20:19;9.60;99.90
23116;DHT22;11727;52.134;5.052;2023-02-03T05:22:45;9.60;99.90
23116;DHT22;11727;52.134;5.052;2023-02-03T05:25:11;9.60;99.90
23116;DHT22;11727;52.134;5.052;2023-02-03T05:27:37;9.60;99.90
23116;DHT22;11727;52.134;5.052;2023-02-03T05:30:04;9.60;99.90
23116;DHT22;11727;52.134;5.052;2023-02-03T05:32:30;9.60;99.90
23116;DHT22;11727;52.134;5.052;2023-02-03T05:34:55;9.60;99.90
23116;DHT22;11727;52.134;5.052;2023-02-03T05:37:21;9.60;99.90
23116;DHT22;11727;52.134;5.052;2023-02-03T05:39:46;9.50;99.90
23116;DHT22;11727;52.134;5.052;2023-02-03T05:42:12;9.60;99.90
23116;DHT22;11727;52.134;5.052;2023-02-03T05:44:38;9.50;99.90
23116;DHT22;11727;52.134;5.052;2023-02-03T05:47:03;9.50;99.90
23116;DHT22;11727;52.134;5.052;2023-02-03T05:49:29;9.50;99.90
23116;DHT22;11727;52.134;5.052;2023-02-03T05:51:55;9.50;99.90
23116;DHT22;11727;52.134;5.052;2023-02-03T05:54:20;9.50;99.90
23116;DHT22;11727;52.134;5.052;2023-02-03T05:56:46;9.50;99.90
23116;DHT22;11727;52.134;5.052;2023-02-03T05:59:12;9.50;99.90
23116;DHT22;11727;52.134;5.052;2023-02-03T06:01:38;9.50;99.90
23116;DHT22;11727;52.134;5.052;2023-02-03T06:04:03;9.50;99.90
23116;DHT22;11727;52.134;5.052;2023-02-03T06:06:30;9.50;99.90
23116;DHT22;11727;52.134;5.052;2023-02-03T06:09:04;9.50;99.90
23116;DHT22;11727;52.134;5.052;2023-02-03T06:11:30;9.50;99.90
23116;DHT22;11727;52.134;5.052;2023-02-03T06:13:56;9.50;99.90
23116;DHT22;11727;52.134;5.052;2023-02-03T06:16:26;9.50;99.90
23116;DHT22;11727;52.134;5.052;2023-02-03T06:18:53;9.40;99.90
23116;DHT22;11727;52.134;5.052;2023-02-03T06:21:20;9.40;99.90
23116;DHT22;11727;52.134;5.052;2023-02-03T06:23:46;9.40;99.90
23116;DHT22;11727;52.134;5.052;2023-02-03T06:26:12;9.40;99.90
23116;DHT22;11727;52.134;5.052;2023-02-03T06:28:38;9.40;99.90
23116;DHT22;11727;52.134;5.052;2023-02-03T06:31:04;9.40;99.90
23116;DHT22;11727;52.134;5.052;2023-02-03T06:33:30;9.40;99.90
23116;DHT22;11727;52.134;5.052;2023-02-03T06:35:56;9.40;99.90
23116;DHT22;11727;52.134;5.052;2023-02-03T06:38:22;9.40;99.90
23116;DHT22;11727;52.134;5.052;2023-02-03T06:40:48;9.40;99.90
23116;DHT22;11727;52.134;5.052;2023-02-03T06:43:14;9.40;99.90
23116;DHT22;11727;52.134;5.052;2023-02-03T06:45:40;9.40;99.90
23116;DHT22;11727;52.134;5.052;2023-02-03T06:48:06;9.40;99.90
23116;DHT22;11727;52.134;5.052;2023-02-03T06:50:32;9.40;99.90
23116;DHT22;11727;52.134;5.052;2023-02-03T06:52:58;9.40;99.90
23116;DHT22;11727;52.134;5.052;2023-02-03T06:55:23;9.40;99.90
23116;DHT22;11727;52.134;5.052;2023-02-03T06:57:49;9.40;99.90
23116;DHT22;11727;52.134;5.052;2023-02-03T07:00:16;9.40;99.90
23116;DHT22;11727;52.134;5.052;2023-02-03T07:02:42;9.40;99.90
23116;DHT22;11727;52.134;5.052;2023-02-03T07:05:08;9.40;99.90
23116;DHT22;11727;52.134;5.052;2023-02-03T07:07:34;9.40;99.90
23116;DHT22;11727;52.134;5.052;2023-02-03T07:10:01;9.40;99.90
23116;DHT22;11727;52.134;5.052;2023-02-03T07:12:26;9.40;99.90
23116;DHT22;11727;52.134;5.052;2023-02-03T07:14:52;9.40;99.90
23116;DHT22;11727;52.134;5.052;2023-02-03T07:17:18;9.40;99.90
23116;DHT22;11727;52.134;5.052;2023-02-03T07:19:43;9.30;99.90
23116;DHT22;11727;52.134;5.052;2023-02-03T07:22:10;9.30;99.90
23116;DHT22;11727;52.134;5.052;2023-02-03T07:24:36;9.30;99.90
23116;DHT22;11727;52.134;5.052;2023-02-03T07:27:01;9.30;99.90
23116;DHT22;11727;52.134;5.052;2023-02-03T07:29:27;9.40;99.90
23116;DHT22;11727;52.134;5.052;2023-02-03T07:31:53;9.30;99.90
23116;DHT22;11727;52.134;5.052;2023-02-03T07:34:18;9.40;99.90
23116;DHT22;11727;52.134;5.052;2023-02-03T07:36:44;9.40;99.90
23116;DHT22;11727;52.134;5.052;2023-02-03T07:39:09;9.40;99.90
23116;DHT22;11727;52.134;5.052;2023-02-03T07:41:35;9.40;99.90
23116;DHT22;11727;52.134;5.052;2023-02-03T07:44:01;9.40;99.90
23116;DHT22;11727;52.134;5.052;2023-02-03T07:46:27;9.40;99.90
23116;DHT22;11727;52.134;5.052;2023-02-03T07:48:52;9.40;99.90
23116;DHT22;11727;52.134;5.052;2023-02-03T07:51:18;9.50;99.90
23116;DHT22;11727;52.134;5.052;2023-02-03T07:53:44;9.50;99.90
23116;DHT22;11727;52.134;5.052;2023-02-03T07:56:10;9.50;99.90
23116;DHT22;11727;52.134;5.052;2023-02-03T07:58:36;9.50;99.90
23116;DHT22;11727;52.134;5.052;2023-02-03T08:01:09;9.50;99.90
23116;DHT22;11727;52.134;5.052;2023-02-03T08:03:35;9.50;99.90
23116;DHT22;11727;52.134;5.052;2023-02-03T08:06:01;9.50;99.90
23116;DHT22;11727;52.134;5.052;2023-02-03T08:08:26;9.50;99.90
23116;DHT22;11727;52.134;5.052;2023-02-03T08:10:54;9.50;99.90
23116;DHT22;11727;52.134;5.052;2023-02-03T08:13:20;9.50;99.90
23116;DHT22;11727;52.134;5.052;2023-02-03T08:15:46;9.50;99.90
23116;DHT22;11727;52.134;5.052;2023-02-03T08:18:12;9.50;99.90
23116;DHT22;11727;52.134;5.052;2023-02-03T08:20:38;9.50;99.90
23116;DHT22;11727;52.134;5.052;2023-02-03T08:23:04;9.50;99.90
23116;DHT22;11727;52.134;5.052;2023-02-03T08:25:30;9.50;99.90
23116;DHT22;11727;52.134;5.052;2023-02-03T08:27:56;9.60;99.90
23116;DHT22;11727;52.134;5.052;2023-02-03T08:30:22;9.60;99.90
23116;DHT22;11727;52.134;5.052;2023-02-03T08:32:48;9.60;99.90
23116;DHT22;11727;52.134;5.052;2023-02-03T08:35:14;9.60;99.90
23116;DHT22;11727;52.134;5.052;2023-02-03T08:37:39;9.60;99.90
23116;DHT22;11727;52.134;5.052;2023-02-03T08:40:06;9.60;99.90
23116;DHT22;11727;52.134;5.052;2023-02-03T08:42:31;9.70;99.90
23116;DHT22;11727;52.134;5.052;2023-02-03T08:44:57;9.70;99.90
23116;DHT22;11727;52.134;5.052;2023-02-03T08:47:23;9.70;99.90
23116;DHT22;11727;52.134;5.052;2023-02-03T08:49:49;9.70;99.90
23116;DHT22;11727;52.134;5.052;2023-02-03T08:52:15;9.70;99.90
23116;DHT22;11727;52.134;5.052;2023-02-03T08:54:40;9.70;99.90
23116;DHT22;11727;52.134;5.052;2023-02-03T08:57:06;9.80;99.90
23116;DHT22;11727;52.134;5.052;2023-02-03T08:59:32;9.80;99.90
23116;DHT22;11727;52.134;5.052;2023-02-03T09:02:01;9.80;99.90
23116;DHT22;11727;52.134;5.052;2023-02-03T09:04:28;9.90;99.90
23116;DHT22;11727;52.134;5.052;2023-02-03T09:06:53;9.90;99.90
23116;DHT22;11727;52.134;5.052;2023-02-03T09:09:20;9.90;99.90
23116;DHT22;11727;52.134;5.052;2023-02-03T09:11:46;9.90;99.90
23116;DHT22;11727;52.134;5.052;2023-02-03T09:14:11;10.00;99.90
23116;DHT22;11727;52.134;5.052;2023-02-03T09:16:38;10.00;99.90
23116;DHT22;11727;52.134;5.052;2023-02-03T09:19:03;10.00;99.90
23116;DHT22;11727;52.134;5.052;2023-02-03T09:21:29;10.00;99.90
23116;DHT22;11727;52.134;5.052;2023-02-03T09:23:55;10.10;99.90
23116;DHT22;11727;52.134;5.052;2023-02-03T09:26:20;10.10;99.90
23116;DHT22;11727;52.134;5.052;2023-02-03T09:28:46;10.10;99.90
23116;DHT22;11727;52.134;5.052;2023-02-03T09:31:13;10.10;99.90
23116;DHT22;11727;52.134;5.052;2023-02-03T09:33:42;10.20;99.90
23116;DHT22;11727;52.134;5.052;2023-02-03T09:36:09;10.20;99.90
23116;DHT22;11727;52.134;5.052;2023-02-03T09:38:34;10.20;99.90
23116;DHT22;11727;52.134;5.052;2023-02-03T09:41:02;10.20;99.90
23116;DHT22;11727;52.134;5.052;2023-02-03T09:46:16;10.30;99.90
23116;DHT22;11727;52.134;5.052;2023-02-03T09:48:48;10.30;99.90
23116;DHT22;11727;52.134;5.052;2023-02-03T09:51:26;10.30;99.90
23116;DHT22;11727;52.134;5.052;2023-02-03T09:53:55;10.30;99.90
23116;DHT22;11727;52.134;5.052;2023-02-03T09:56:33;10.30;99.90
23116;DHT22;11727;52.134;5.052;2023-02-03T09:59:01;10.30;99.90
23116;DHT22;11727;52.134;5.052;2023-02-03T10:01:37;10.30;99.90
23116;DHT22;11727;52.134;5.052;2023-02-03T10:06:43;10.30;99.90
23116;DHT22;11727;52.134;5.052;2023-02-03T10:17:42;10.30;99.90
23116;DHT22;11727;52.134;5.052;2023-02-03T10:20:19;10.30;99.90
23116;DHT22;11727;52.134;5.052;2023-02-03T10:22:57;10.30;99.90
23116;DHT22;11727;52.134;5.052;2023-02-03T10:28:16;10.30;99.90
23116;DHT22;11727;52.134;5.052;2023-02-03T10:30:49;10.30;99.90
23116;DHT22;11727;52.134;5.052;2023-02-03T10:33:17;10.30;99.90
23116;DHT22;11727;52.134;5.052;2023-02-03T10:35:49;10.30;99.90
23116;DHT22;11727;52.134;5.052;2023-02-03T10:38:30;10.40;99.90
23116;DHT22;11727;52.134;5.052;2023-02-03T10:40:58;10.30;99.90
23116;DHT22;11727;52.134;5.052;2023-02-03T10:43:23;10.30;99.90
23116;DHT22;11727;52.134;5.052;2023-02-03T10:46:08;10.30;99.90
23116;DHT22;11727;52.134;5.052;2023-02-03T10:48:33;10.40;99.90
23116;DHT22;11727;52.134;5.052;2023-02-03T10:51:00;10.40;99.90
23116;DHT22;11727;52.134;5.052;2023-02-03T10:53:34;10.40;99.90
23116;DHT22;11727;52.134;5.052;2023-02-03T10:58:27;10.40;99.90
23116;DHT22;11727;52.134;5.052;2023-02-03T11:01:04;10.50;99.90
23116;DHT22;11727;52.134;5.052;2023-02-03T11:03:31;10.50;99.90
23116;DHT22;11727;52.134;5.052;2023-02-03T11:06:09;10.50;99.90
23116;DHT22;11727;52.134;5.052;2023-02-03T11:08:38;10.50;99.90
23116;DHT22;11727;52.134;5.052;2023-02-03T11:11:07;10.60;99.90
23116;DHT22;11727;52.134;5.052;2023-02-03T11:13:33;10.60;99.90
23116;DHT22;11727;52.134;5.052;2023-02-03T11:18:37;10.70;99.90
23116;DHT22;11727;52.134;5.052;2023-02-03T11:21:15;10.60;99.90
23116;DHT22;11727;52.134;5.052;2023-02-03T11:24:05;10.70;99.90
23116;DHT22;11727;52.134;5.052;2023-02-03T11:26:36;10.70;99.90
23116;DHT22;11727;52.134;5.052;2023-02-03T11:29:04;10.70;99.90
23116;DHT22;11727;52.134;5.052;2023-02-03T11:31:34;10.70;99.90
23116;DHT22;11727;52.134;5.052;2023-02-03T11:34:03;10.70;99.90
23116;DHT22;11727;52.134;5.052;2023-02-03T11:36:34;10.70;99.90
23116;DHT22;11727;52.134;5.052;2023-02-03T11:39:27;10.70;99.90
23116;DHT22;11727;52.134;5.052;2023-02-03T11:41:59;10.70;99.90
23116;DHT22;11727;52.134;5.052;2023-02-03T11:44:29;10.70;99.90
23116;DHT22;11727;52.134;5.052;2023-02-03T11:47:06;10.60;99.90
23116;DHT22;11727;52.134;5.052;2023-02-03T12:14:15;10.60;99.90
23116;DHT22;11727;52.134;5.052;2023-02-03T12:18:12;10.60;99.90
23116;DHT22;11727;52.134;5.052;2023-02-03T12:20:13;10.50;99.90
23116;DHT22;11727;52.134;5.052;2023-02-03T12:28:11;10.30;99.90
23116;DHT22;11727;52.134;5.052;2023-02-03T12:30:48;10.20;99.90
23116;DHT22;11727;52.134;5.052;2023-02-03T12:33:27;10.20;99.90
23116;DHT22;11727;52.134;5.052;2023-02-03T12:36:14;10.20;99.90
23116;DHT22;11727;52.134;5.052;2023-02-03T12:38:46;10.10;99.90
23116;DHT22;11727;52.134;5.052;2023-02-03T12:41:19;10.00;99.90
23116;DHT22;11727;52.134;5.052;2023-02-03T12:43:50;9.90;99.90
23116;DHT22;11727;52.134;5.052;2023-02-03T12:54:08;9.70;99.90
23116;DHT22;11727;52.134;5.052;2023-02-03T12:56:41;9.70;99.90
23116;DHT22;11727;52.134;5.052;2023-02-03T12:59:17;9.60;99.90
23116;DHT22;11727;52.134;5.052;2023-02-03T13:04:34;9.50;99.90
23116;DHT22;11727;52.134;5.052;2023-02-03T13:17:44;9.60;99.90
23116;DHT22;11727;52.134;5.052;2023-02-03T13:20:19;9.60;99.90
23116;DHT22;11727;52.134;5.052;2023-02-03T13:22:45;9.60;99.90
23116;DHT22;11727;52.134;5.052;2023-02-03T13:41:47;9.70;99.90
23116;DHT22;11727;52.134;5.052;2023-02-03T13:44:18;9.70;99.90
23116;DHT22;11727;52.134;5.052;2023-02-03T13:46:47;9.80;99.90
23116;DHT22;11727;52.134;5.052;2023-02-03T13:49:28;9.80;99.90
23116;DHT22;11727;52.134;5.052;2023-02-03T13:51:56;9.80;99.90
23116;DHT22;11727;52.134;5.052;2023-02-03T13:54:24;9.80;99.90
23116;DHT22;11727;52.134;5.052;2023-02-03T13:56:57;9.90;99.90
23116;DHT22;11727;52.134;5.052;2023-02-03T14:07:36;9.80;99.90
23116;DHT22;11727;52.134;5.052;2023-02-03T14:12:54;9.80;99.90
23116;DHT22;11727;52.134;5.052;2023-02-03T14:15:22;9.80;99.90
23116;DHT22;11727;52.134;5.052;2023-02-03T14:17:56;9.80;99.90
23116;DHT22;11727;52.134;5.052;2023-02-03T14:23:08;9.80;99.90
23116;DHT22;11727;52.134;5.052;2023-02-03T14:25:45;9.80;99.90
23116;DHT22;11727;52.134;5.052;2023-02-03T14:28:22;9.80;99.90
23116;DHT22;11727;52.134;5.052;2023-02-03T14:33:50;9.90;99.90
23116;DHT22;11727;52.134;5.052;2023-02-03T14:38:53;9.90;99.90
23116;DHT22;11727;52.134;5.052;2023-02-03T14:41:33;9.80;99.90
23116;DHT22;11727;52.134;5.052;2023-02-03T14:44:39;9.90;99.90
23116;DHT22;11727;52.134;5.052;2023-02-03T14:47:24;9.80;99.90
23116;DHT22;11727;52.134;5.052;2023-02-03T14:52:53;9.90;99.90
23116;DHT22;11727;52.134;5.052;2023-02-03T14:55:33;9.80;99.90
23116;DHT22;11727;52.134;5.052;2023-02-03T14:58:03;9.80;99.90
23116;DHT22;11727;52.134;5.052;2023-02-03T15:00:34;9.80;99.90
23116;DHT22;11727;52.134;5.052;2023-02-03T15:05:40;9.70;99.90
23116;DHT22;11727;52.134;5.052;2023-02-03T15:10:54;9.70;99.90
23116;DHT22;11727;52.134;5.052;2023-02-03T15:13:28;9.70;99.90
23116;DHT22;11727;52.134;5.052;2023-02-03T15:15:59;9.60;99.90
23116;DHT22;11727;52.134;5.052;2023-02-03T15:18:39;9.60;99.90
23116;DHT22;11727;52.134;5.052;2023-02-03T15:21:12;9.60;99.90
23116;DHT22;11727;52.134;5.052;2023-02-03T15:23:42;9.60;99.90
23116;DHT22;11727;52.134;5.052;2023-02-03T15:26:14;9.60;99.90
23116;DHT22;11727;52.134;5.052;2023-02-03T15:28:40;9.60;99.90
23116;DHT22;11727;52.134;5.052;2023-02-03T15:31:16;9.60;99.90
23116;DHT22;11727;52.134;5.052;2023-02-03T15:33:43;9.60;99.90
23116;DHT22;11727;52.134;5.052;2023-02-03T15:36:46;9.60;99.90
23116;DHT22;11727;52.134;5.052;2023-02-03T15:41:50;9.50;99.90
23116;DHT22;11727;52.134;5.052;2023-02-03T15:44:26;9.50;99.90
23116;DHT22;11727;52.134;5.052;2023-02-03T15:46:53;9.50;99.90
23116;DHT22;11727;52.134;5.052;2023-02-03T15:49:29;9.40;99.90
23116;DHT22;11727;52.134;5.052;2023-02-03T15:52:02;9.40;99.90
23116;DHT22;11727;52.134;5.052;2023-02-03T15:54:38;9.40;99.90
23116;DHT22;11727;52.134;5.052;2023-02-03T15:57:18;9.40;99.90
23116;DHT22;11727;52.134;5.052;2023-02-03T15:59:54;9.40;99.90
23116;DHT22;11727;52.134;5.052;2023-02-03T16:04:50;9.30;99.90
23116;DHT22;11727;52.134;5.052;2023-02-03T16:07:20;9.30;99.90
23116;DHT22;11727;52.134;5.052;2023-02-03T16:09:51;9.30;99.90
23116;DHT22;11727;52.134;5.052;2023-02-03T16:12:30;9.20;99.90
23116;DHT22;11727;52.134;5.052;2023-02-03T16:14:58;9.20;99.90
23116;DHT22;11727;52.134;5.052;2023-02-03T16:17:33;9.10;99.90
23116;DHT22;11727;52.134;5.052;2023-02-03T16:22:40;9.10;99.90
23116;DHT22;11727;52.134;5.052;2023-02-03T16:25:32;9.00;99.90
23116;DHT22;11727;52.134;5.052;2023-02-03T16:31:16;9.00;99.90
23116;DHT22;11727;52.134;5.052;2023-02-03T16:34:01;9.00;99.90
23116;DHT22;11727;52.134;5.052;2023-02-03T16:36:51;8.90;99.90
23116;DHT22;11727;52.134;5.052;2023-02-03T16:39:35;8.90;99.90
23116;DHT22;11727;52.134;5.052;2023-02-03T16:42:20;8.90;99.90
23116;DHT22;11727;52.134;5.052;2023-02-03T16:45:24;8.90;99.90
23116;DHT22;11727;52.134;5.052;2023-02-03T16:48:10;8.90;99.90
23116;DHT22;11727;52.134;5.052;2023-02-03T16:50:55;8.90;99.90
23116;DHT22;11727;52.134;5.052;2023-02-03T16:53:29;8.90;99.90
23116;DHT22;11727;52.134;5.052;2023-02-03T16:55:56;8.80;99.90
23116;DHT22;11727;52.134;5.052;2023-02-03T16:58:22;8.80;99.90
23116;DHT22;11727;52.134;5.052;2023-02-03T17:00:50;8.80;99.90
23116;DHT22;11727;52.134;5.052;2023-02-03T17:03:17;8.80;99.90
23116;DHT22;11727;52.134;5.052;2023-02-03T17:05:44;8.80;99.90
23116;DHT22;11727;52.134;5.052;2023-02-03T17:08:11;8.80;99.90
23116;DHT22;11727;52.134;5.052;2023-02-03T17:10:39;8.80;99.90
23116;DHT22;11727;52.134;5.052;2023-02-03T17:13:05;8.70;99.90
23116;DHT22;11727;52.134;5.052;2023-02-03T17:15:32;8.70;99.90
23116;DHT22;11727;52.134;5.052;2023-02-03T17:17:58;8.70;99.90
23116;DHT22;11727;52.134;5.052;2023-02-03T17:20:24;8.70;99.90
23116;DHT22;11727;52.134;5.052;2023-02-03T17:22:50;8.70;99.90
23116;DHT22;11727;52.134;5.052;2023-02-03T17:25:19;8.70;99.90
23116;DHT22;11727;52.134;5.052;2023-02-03T17:27:46;8.70;99.90
23116;DHT22;11727;52.134;5.052;2023-02-03T17:30:11;8.70;99.90
23116;DHT22;11727;52.134;5.052;2023-02-03T17:32:37;8.70;99.90
23116;DHT22;11727;52.134;5.052;2023-02-03T17:35:03;8.70;99.90
23116;DHT22;11727;52.134;5.052;2023-02-03T17:37:32;8.70;99.90
23116;DHT22;11727;52.134;5.052;2023-02-03T17:39:57;8.70;99.90
23116;DHT22;11727;52.134;5.052;2023-02-03T17:42:23;8.60;99.90
23116;DHT22;11727;52.134;5.052;2023-02-03T17:44:48;8.60;99.90
23116;DHT22;11727;52.134;5.052;2023-02-03T17:47:14;8.60;99.90
23116;DHT22;11727;52.134;5.052;2023-02-03T17:49:40;8.60;99.90
23116;DHT22;11727;52.134;5.052;2023-02-03T17:52:05;8.60;99.90
23116;DHT22;11727;52.134;5.052;2023-02-03T17:54:31;8.60;99.90
23116;DHT22;11727;52.134;5.052;2023-02-03T17:56:56;8.60;99.90
23116;DHT22;11727;52.134;5.052;2023-02-03T17:59:22;8.60;99.90
23116;DHT22;11727;52.134;5.052;2023-02-03T18:01:48;8.60;99.90
23116;DHT22;11727;52.134;5.052;2023-02-03T18:04:14;8.60;99.90
23116;DHT22;11727;52.134;5.052;2023-02-03T18:06:39;8.60;99.90
23116;DHT22;11727;52.134;5.052;2023-02-03T18:09:07;8.60;99.90
23116;DHT22;11727;52.134;5.052;2023-02-03T18:11:35;8.60;99.90
23116;DHT22;11727;52.134;5.052;2023-02-03T18:14:01;8.60;99.90
23116;DHT22;11727;52.134;5.052;2023-02-03T18:16:29;8.60;99.90
23116;DHT22;11727;52.134;5.052;2023-02-03T18:18:58;8.60;99.90
23116;DHT22;11727;52.134;5.052;2023-02-03T18:21:24;8.70;99.90
23116;DHT22;11727;52.134;5.052;2023-02-03T18:23:51;8.70;99.90
23116;DHT22;11727;52.134;5.052;2023-02-03T18:26:21;8.70;99.90
23116;DHT22;11727;52.134;5.052;2023-02-03T18:28:50;8.70;99.90